EGCK

Details ICAO EGCK
Name Caernarfon
Region United Kingdom
Timezone Europe/London (UTC+1.0)
Plans Departing 24
Arriving 39
Stats Elevation 13 ft / 4 m (AMSL)
Location 53.103081° -4.338717°
Runways 2
Magnetic Variation 2.139° W
Sunrise 2018-05-27 04:03:52 UTC / 2018-05-27 05:03:52 Local
Sunset 2018-05-27 20:28:02 UTC / 2018-05-27 21:28:02 Local
Advertisement - Login to hide

Runways

ID Width Length Bearing (true) Bearing (mag) Surface Threshold Offset Overrun Length
02 75 ft / 23 m 3,499 ft / 1,066 m 13.18° 15.32° Asphalt 253 ft / 77 m 3 ft / 1 m
08 75 ft / 23 m 2,995 ft / 913 m 70.77° 72.91° Asphalt 151 ft / 46 m 0 ft / 0 m
20 75 ft / 23 m 3,499 ft / 1,066 m 193.18° 195.32° Asphalt 0 ft / 0 m 0 ft / 0 m
26 75 ft / 23 m 2,995 ft / 913 m 250.78° 252.92° Asphalt 266 ft / 81 m 0 ft / 0 m

Map

Weather


0- 5 10 15 20 25 30 35+ Temperature / ° C

Clouds and Precipitation
Forecast for 2018-05-27 18:00 UTC. Updated 5 hours ago

Ground ~20,000 ft ~40,000 ft Winds

METAR

EGCK 272150Z AUTO 01006KT 4100 BR BKN038/// 15/14 Q1017

TAF

Not found

Frequencies

Tower 122.25 MHz Caernarfon Radio
Warning: Do not use this data for real-world aviation or navigation. No guarantee of current accuracy is given.